createdAt,value
2019-02-07T00:00:14.717Z,98808.72
2019-02-07T00:02:43.345Z,98809.61
2019-02-07T00:05:12.341Z,98792.34
2019-02-07T00:07:40.655Z,98796.66
2019-02-07T00:10:15.564Z,98782.94
2019-02-07T00:12:44.251Z,98750.75
2019-02-07T00:15:14.297Z,98771.24
2019-02-07T00:17:42.952Z,98773.45
2019-02-07T00:20:19.689Z,98765.28
2019-02-07T00:22:48.120Z,98762.88
2019-02-07T00:25:16.550Z,98758.00
2019-02-07T00:27:44.861Z,98762.84
2019-02-07T00:30:23.349Z,98756.92
2019-02-07T00:32:51.801Z,98755.24
2019-02-07T00:35:20.574Z,98735.41
2019-02-07T00:37:49.369Z,98743.50
2019-02-07T00:40:19.332Z,98741.07
2019-02-07T00:42:48.283Z,98751.87
2019-02-07T00:45:18.048Z,98745.27
2019-02-07T00:47:46.491Z,98739.19
2019-02-07T00:50:17.471Z,98734.91
2019-02-07T00:52:45.949Z,98716.36
2019-02-07T00:55:16.017Z,98734.38
2019-02-07T00:57:45.221Z,98724.00
2019-02-07T01:00:25.486Z,98722.97
2019-02-07T01:02:54.175Z,98716.98
2019-02-07T01:05:23.758Z,98718.26
2019-02-07T01:07:52.531Z,98716.62
2019-02-07T01:10:24.166Z,98707.59
2019-02-07T01:12:52.620Z,98707.92
2019-02-07T01:15:21.803Z,98704.63
2019-02-07T01:17:50.185Z,98707.09
2019-02-07T01:20:18.860Z,98700.72
2019-02-07T01:22:47.256Z,98709.78
2019-02-07T01:25:22.011Z,98710.63
2019-02-07T01:27:50.465Z,98702.88
2019-02-07T01:30:24.343Z,98704.60
2019-02-07T01:32:53.126Z,98698.55
2019-02-07T01:35:21.911Z,98697.28
2019-02-07T01:37:50.668Z,98684.26
2019-02-07T01:40:21.044Z,98691.38
2019-02-07T01:42:49.820Z,98678.81
2019-02-07T01:45:20.855Z,98675.48
2019-02-07T01:47:49.874Z,98668.41
2019-02-07T01:50:20.700Z,98666.05
2019-02-07T01:52:49.650Z,98663.09
2019-02-07T01:55:18.206Z,98653.45
2019-02-07T01:57:47.245Z,98651.83
2019-02-07T02:00:17.594Z,98644.97
2019-02-07T02:02:46.185Z,98635.17
2019-02-07T02:05:21.017Z,98633.89
2019-02-07T02:07:50.745Z,98640.69
2019-02-07T02:10:28.009Z,98636.91
2019-02-07T02:12:56.679Z,98635.58
2019-02-07T02:15:25.431Z,98634.14
2019-02-07T02:17:53.984Z,98637.59
2019-02-07T02:20:26.308Z,98631.23
2019-02-07T02:22:56.425Z,98637.84
2019-02-07T02:25:25.755Z,98632.05
2019-02-07T02:27:54.454Z,98631.59
2019-02-07T02:30:37.066Z,98633.95
2019-02-07T02:33:06.054Z,98630.23
2019-02-07T02:35:34.434Z,98629.42
2019-02-07T02:38:02.757Z,98627.34
2019-02-07T02:40:31.148Z,98629.42
2019-02-07T02:42:59.933Z,98625.09
2019-02-07T02:45:37.229Z,98620.70
2019-02-07T02:47:58.717Z,98618.88
2019-02-07T02:50:27.103Z,98625.84
2019-02-07T02:52:55.584Z,98622.63
2019-02-07T02:55:28.281Z,98621.44
2019-02-07T02:57:56.677Z,98610.44
2019-02-07T03:00:41.678Z,98623.45
2019-02-07T03:03:20.443Z,98617.62
2019-02-07T03:05:59.003Z,98615.27
2019-02-07T03:08:34.983Z,98615.13
2019-02-07T03:11:13.755Z,98612.55
2019-02-07T03:13:46.474Z,98614.41
2019-02-07T03:16:16.431Z,98610.72
2019-02-07T03:18:46.476Z,98601.36
2019-02-07T03:21:33.106Z,98605.64
2019-02-07T03:24:05.895Z,98608.25
2019-02-07T03:26:47.836Z,98606.22
2019-02-07T03:29:32.539Z,98598.50
2019-02-07T03:32:18.568Z,98595.06
2019-02-07T03:34:53.989Z,98596.86
2019-02-07T03:37:24.384Z,98598.89
2019-02-07T03:39:57.591Z,98600.65
2019-02-07T03:42:36.538Z,98601.34
2019-02-07T03:45:25.796Z,98599.05
2019-02-07T03:48:04.681Z,98593.78
2019-02-07T03:50:51.116Z,98602.46
2019-02-07T03:53:26.837Z,98596.83
2019-02-07T03:56:13.085Z,98598.46
2019-02-07T03:58:45.812Z,98599.25
2019-02-07T04:01:18.889Z,98594.60
2019-02-07T04:03:52.466Z,98600.19
2019-02-07T04:06:28.723Z,98595.16
2019-02-07T04:09:10.723Z,98601.38
2019-02-07T04:11:40.674Z,98598.11
2019-02-07T04:14:14.045Z,98597.69
2019-02-07T04:16:47.039Z,98606.42
2019-02-07T04:19:17.060Z,98599.02
2019-02-07T04:22:02.858Z,98597.61
2019-02-07T04:24:41.974Z,98601.63
2019-02-07T04:27:28.587Z,98596.91
2019-02-07T04:29:58.913Z,98601.11
2019-02-07T04:32:45.805Z,98593.23
2019-02-07T04:35:27.820Z,98583.83
2019-02-07T04:37:57.797Z,98578.63
2019-02-07T04:40:30.812Z,98565.59
2019-02-07T04:43:01.065Z,98561.52
2019-02-07T04:45:33.864Z,98572.75
2019-02-07T04:48:15.854Z,98576.92
2019-02-07T04:50:46.283Z,98582.50
2019-02-07T04:53:28.203Z,98582.45
2019-02-07T04:55:58.148Z,98579.23
2019-02-07T04:58:42.846Z,98579.92
2019-02-07T05:01:15.499Z,98568.75
2019-02-07T05:03:51.049Z,98575.06
2019-02-07T05:06:27.064Z,98575.77
2019-02-07T05:09:09.031Z,98574.95
2019-02-07T05:11:47.771Z,98573.70
2019-02-07T05:14:29.972Z,98574.81
2019-02-07T05:16:59.954Z,98563.28
2019-02-07T05:19:33.181Z,98563.28
2019-02-07T05:22:03.135Z,98570.70
2019-02-07T05:24:33.175Z,98565.91
2019-02-07T05:30:11.264Z,98573.43
2019-02-07T05:32:56.153Z,98569.80
2019-02-07T05:35:42.059Z,98570.83
2019-02-07T05:38:23.595Z,98572.05
2019-02-07T05:41:03.025Z,98564.38
2019-02-07T05:43:33.046Z,98563.34
2019-02-07T05:46:05.983Z,98569.75
2019-02-07T05:48:38.897Z,98567.84
2019-02-07T05:51:08.958Z,98566.68
2019-02-07T05:53:50.875Z,98564.38
2019-02-07T05:56:30.542Z,98566.55
2019-02-07T05:59:05.968Z,98570.73
2019-02-07T06:01:35.987Z,98572.33
2019-02-07T06:04:06.733Z,98575.66
2019-02-07T06:06:37.365Z,98571.48
2019-02-07T06:09:12.572Z,98580.63
2019-02-07T06:11:42.522Z,98575.87
2019-02-07T06:14:28.550Z,98582.42
2019-02-07T06:17:17.529Z,98582.42
2019-02-07T06:19:47.501Z,98566.95
2019-02-07T06:22:20.135Z,98578.95
2019-02-07T06:25:08.128Z,98570.11
2019-02-07T06:27:40.897Z,98577.09
2019-02-07T06:30:14.022Z,98569.02
2019-02-07T06:33:00.082Z,98566.69
2019-02-07T06:35:30.053Z,98564.84
2019-02-07T06:38:08.888Z,98563.72
2019-02-07T06:40:53.836Z,98563.80
2019-02-07T06:43:27.233Z,98571.28
2019-02-07T06:46:02.659Z,98572.07
2019-02-07T06:48:32.637Z,98575.24
2019-02-07T06:51:08.271Z,98569.83
2019-02-07T06:53:43.833Z,98563.17
2019-02-07T06:56:13.881Z,98570.77
2019-02-07T06:58:46.801Z,98583.87
2019-02-07T07:01:19.792Z,98578.22
2019-02-07T07:03:49.766Z,98574.28
2019-02-07T07:06:20.291Z,98579.08
2019-02-07T07:08:56.271Z,98575.14
2019-02-07T07:11:35.264Z,98585.95
2019-02-07T07:14:05.239Z,98598.11
2019-02-07T07:16:35.507Z,98591.99
2019-02-07T07:19:06.251Z,98592.84
2019-02-07T07:21:38.700Z,98574.63
2019-02-07T07:24:20.503Z,98591.56
2019-02-07T07:26:50.454Z,98588.95
2019-02-07T07:29:37.138Z,98583.09
2019-02-07T07:32:16.294Z,98588.05
2019-02-07T07:34:45.349Z,98597.02
2019-02-07T07:37:18.495Z,98598.27
2019-02-07T07:40:04.678Z,98590.00
2019-02-07T07:42:43.810Z,98593.00
2019-02-07T07:45:32.228Z,98600.81
2019-02-07T07:48:18.265Z,98595.66
2019-02-07T07:51:05.034Z,98598.42
2019-02-07T07:53:40.895Z,98605.25
2019-02-07T07:56:13.693Z,98603.41
2019-02-07T07:58:43.651Z,98603.89
2019-02-07T08:01:14.028Z,98601.11
2019-02-07T08:03:43.978Z,98592.45
2019-02-07T08:06:16.724Z,98592.29
2019-02-07T08:08:49.206Z,98590.30
2019-02-07T08:11:25.482Z,98591.90
2019-02-07T08:14:10.737Z,98588.08
2019-02-07T08:16:59.109Z,98591.08
2019-02-07T08:19:44.605Z,98588.25
2019-02-07T08:22:17.939Z,98592.63
2019-02-07T08:24:47.854Z,98593.83
2019-02-07T08:27:18.135Z,98591.52
2019-02-07T08:29:51.057Z,98597.62
2019-02-07T08:32:24.500Z,98594.34
2019-02-07T08:35:10.923Z,98595.29
2019-02-07T08:37:52.777Z,98597.42
2019-02-07T08:40:31.360Z,98591.17
2019-02-07T08:43:12.983Z,98593.14
2019-02-07T08:45:45.635Z,98590.48
2019-02-07T08:48:25.462Z,98595.58
2019-02-07T08:51:01.417Z,98586.98
2019-02-07T08:53:40.090Z,98587.09
2019-02-07T08:56:16.164Z,98598.87
2019-02-07T08:58:46.107Z,98601.30
2019-02-07T09:01:18.665Z,98592.09
2019-02-07T09:03:48.639Z,98588.76
2019-02-07T09:06:30.992Z,98542.63
2019-02-07T09:09:16.623Z,98582.38
2019-02-07T09:11:52.511Z,98585.12
2019-02-07T09:14:22.465Z,98585.77
2019-02-07T09:17:08.006Z,98587.83
2019-02-07T09:19:44.034Z,98581.54
2019-02-07T09:22:16.765Z,98582.88
2019-02-07T09:24:58.579Z,98577.02
2019-02-07T09:27:34.119Z,98573.78
2019-02-07T09:30:13.037Z,98570.88
2019-02-07T09:32:43.081Z,98571.90
2019-02-07T09:35:13.592Z,98571.46
2019-02-07T09:38:00.123Z,98570.83
2019-02-07T09:40:32.530Z,98582.43
2019-02-07T09:43:05.540Z,98578.63
2019-02-07T09:45:35.481Z,98575.90
2019-02-07T09:48:21.404Z,98581.02
2019-02-07T09:50:55.413Z,98575.35
2019-02-07T09:53:38.533Z,98579.86
2019-02-07T09:56:08.633Z,98573.34
2019-02-07T09:58:50.543Z,98571.51
2019-02-07T10:01:26.372Z,98573.13
2019-02-07T10:03:56.702Z,98571.53
2019-02-07T10:06:27.761Z,98568.69
2019-02-07T10:08:57.844Z,98572.38
2019-02-07T10:11:31.692Z,98564.45
2019-02-07T10:14:18.328Z,98561.41
2019-02-07T10:16:48.262Z,98567.34
2019-02-07T10:19:23.845Z,98571.95
2019-02-07T10:21:53.875Z,98567.53
2019-02-07T10:24:39.685Z,98566.53
2019-02-07T10:27:10.084Z,98555.84
2019-02-07T10:29:40.044Z,98563.53
2019-02-07T10:32:18.927Z,98562.36
2019-02-07T10:35:03.945Z,98561.33
2019-02-07T10:37:39.558Z,98557.70
2019-02-07T10:40:17.938Z,98552.52
2019-02-07T10:42:51.113Z,98540.00
2019-02-07T10:45:23.845Z,98542.02
2019-02-07T10:48:08.817Z,98535.75
2019-02-07T10:50:38.765Z,98533.23
2019-02-07T10:53:14.863Z,98529.66
2019-02-07T10:56:00.166Z,98528.72
2019-02-07T10:58:46.020Z,98528.42
2019-02-07T11:01:25.047Z,98528.45
2019-02-07T11:04:05.003Z,98525.95
2019-02-07T11:06:46.582Z,98531.56
2019-02-07T11:09:22.537Z,98524.13
2019-02-07T11:11:52.539Z,98522.45
2019-02-07T11:14:25.173Z,98522.33
2019-02-07T11:16:55.432Z,98515.66
2019-02-07T11:19:43.227Z,98519.83
2019-02-07T11:22:15.817Z,98517.52
2019-02-07T11:24:51.884Z,98517.98
2019-02-07T11:27:21.844Z,98513.56
2019-02-07T11:29:51.841Z,98508.53
2019-02-07T11:32:25.156Z,98493.81
2019-02-07T11:35:10.006Z,98492.11
2019-02-07T11:37:49.059Z,98494.45
2019-02-07T11:40:37.060Z,98491.00
2019-02-07T11:43:23.552Z,98487.63
2019-02-07T11:45:56.158Z,98483.75
2019-02-07T11:48:26.501Z,98479.84
2019-02-07T11:51:01.922Z,98470.24
2019-02-07T11:53:49.984Z,98475.00
2019-02-07T11:56:20.003Z,98469.16
2019-02-07T11:58:50.437Z,98469.67
2019-02-07T12:01:29.580Z,98458.80
2019-02-07T12:04:15.674Z,98459.79
2019-02-07T12:06:52.091Z,98454.81
2019-02-07T12:09:30.757Z,98459.89
2019-02-07T12:12:12.725Z,98454.20
2019-02-07T12:14:58.925Z,98449.88
2019-02-07T12:17:41.172Z,98449.34
2019-02-07T12:20:19.868Z,98445.85
2019-02-07T12:23:06.793Z,98445.58
2019-02-07T12:25:42.976Z,98447.41
2019-02-07T12:28:15.687Z,98441.27
2019-02-07T12:31:01.947Z,98427.22
2019-02-07T12:33:48.259Z,98423.33
2019-02-07T12:36:24.168Z,98420.79
2019-02-07T12:38:57.423Z,98418.48
2019-02-07T12:41:30.207Z,98406.78
2019-02-07T12:44:02.520Z,98408.83
2019-02-07T12:46:35.201Z,98397.88
2019-02-07T12:49:11.429Z,98403.25
2019-02-07T12:51:41.384Z,98398.00
2019-02-07T12:54:14.118Z,98403.76
2019-02-07T12:57:02.139Z,98402.77
2019-02-07T12:59:32.825Z,98400.38
2019-02-07T13:02:17.601Z,98395.02
2019-02-07T13:04:56.165Z,98397.12
2019-02-07T13:07:37.797Z,98404.35
2019-02-07T13:10:29.195Z,98397.89
2019-02-07T13:12:59.207Z,98397.20
2019-02-07T13:15:29.209Z,98402.43
2019-02-07T13:18:02.055Z,98394.89
2019-02-07T13:20:47.214Z,98392.67
2019-02-07T13:23:23.069Z,98388.22
2019-02-07T13:25:59.650Z,98389.08
2019-02-07T13:28:32.359Z,98390.89
2019-02-07T13:31:02.340Z,98381.58
2019-02-07T13:33:32.367Z,98390.11
2019-02-07T13:36:08.066Z,98377.08
2019-02-07T13:38:40.472Z,98380.63
2019-02-07T13:41:22.434Z,98381.35
2019-02-07T13:43:52.599Z,98389.86
2019-02-07T13:46:22.688Z,98384.37
2019-02-07T13:48:53.106Z,98381.92
2019-02-07T13:51:23.051Z,98377.09
2019-02-07T13:54:08.992Z,98381.55
2019-02-07T13:56:57.261Z,98380.98
2019-02-07T13:59:45.632Z,98380.41
2019-02-07T14:02:31.566Z,98381.85
2019-02-07T14:05:17.646Z,98372.92
2019-02-07T14:08:03.801Z,98378.98
2019-02-07T14:10:39.872Z,98385.62
2019-02-07T14:13:18.948Z,98382.84
2019-02-07T14:15:48.984Z,98386.98
2019-02-07T14:18:33.712Z,98380.78
2019-02-07T14:21:09.528Z,98381.05
2019-02-07T14:23:48.273Z,98371.88
2019-02-07T14:26:26.861Z,98376.41
2019-02-07T14:29:00.065Z,98376.79
2019-02-07T14:31:30.082Z,98372.91
2019-02-07T14:34:12.068Z,98370.55
2019-02-07T14:36:56.969Z,98373.27
2019-02-07T14:39:29.844Z,98376.53
2019-02-07T14:42:02.730Z,98375.23
2019-02-07T14:44:35.601Z,98374.97
2019-02-07T14:47:03.907Z,98368.79
2019-02-07T14:49:32.209Z,98376.26
2019-02-07T14:52:00.538Z,98368.72
2019-02-07T14:54:28.841Z,98369.45
2019-02-07T14:56:57.230Z,98368.88
2019-02-07T14:59:25.905Z,98367.13
2019-02-07T15:01:54.233Z,98367.17
2019-02-07T15:04:22.608Z,98367.89
2019-02-07T15:06:51.480Z,98366.59
2019-02-07T15:09:20.360Z,98368.38
2019-02-07T15:11:48.936Z,98369.28
2019-02-07T15:14:17.317Z,98359.08
2019-02-07T15:16:45.639Z,98362.45
2019-02-07T15:19:14.033Z,98351.86
2019-02-07T15:21:42.412Z,98358.50
2019-02-07T15:24:11.089Z,98357.72
2019-02-07T15:26:39.457Z,98360.62
2019-02-07T15:29:08.351Z,98355.06
2019-02-07T15:31:36.649Z,98357.83
2019-02-07T15:34:05.510Z,98354.51
2019-02-07T15:36:33.882Z,98359.55
2019-02-07T15:39:02.860Z,98361.98
2019-02-07T15:41:31.238Z,98359.86
2019-02-07T15:43:59.569Z,98354.41
2019-02-07T15:46:27.942Z,98359.65
2019-02-07T15:48:56.265Z,98354.37
2019-02-07T15:51:24.636Z,98351.14
2019-02-07T15:53:53.034Z,98352.92
2019-02-07T15:56:22.051Z,98347.58
2019-02-07T15:58:54.794Z,98353.70
2019-02-07T16:01:27.549Z,98350.70
2019-02-07T16:03:57.531Z,98344.39
2019-02-07T16:06:25.830Z,98348.36
2019-02-07T16:08:54.615Z,98349.49
2019-02-07T16:11:22.922Z,98348.88
2019-02-07T16:13:51.280Z,98354.71
2019-02-07T16:16:19.742Z,98356.86
2019-02-07T16:18:48.178Z,98365.63
2019-02-07T16:21:16.478Z,98365.20
2019-02-07T16:23:44.883Z,98362.80
2019-02-07T16:26:14.894Z,98371.21
2019-02-07T16:28:43.412Z,98375.64
2019-02-07T16:31:12.078Z,98374.70
2019-02-07T16:33:40.487Z,98377.30
2019-02-07T16:36:09.061Z,98363.78
2019-02-07T16:38:37.374Z,98381.22
2019-02-07T16:41:06.260Z,98390.22
2019-02-07T16:43:34.636Z,98390.31
2019-02-07T16:46:03.037Z,98394.02
2019-02-07T16:48:31.337Z,98391.14
2019-02-07T16:51:00.634Z,98394.62
2019-02-07T16:53:28.954Z,98393.45
2019-02-07T16:55:57.374Z,98397.78
2019-02-07T16:58:26.136Z,98391.67
2019-02-07T17:00:54.807Z,98394.67
2019-02-07T17:03:23.384Z,98395.91
2019-02-07T17:05:51.773Z,98393.61
2019-02-07T17:08:20.154Z,98396.63
2019-02-07T17:10:48.545Z,98403.97
2019-02-07T17:13:18.084Z,98402.88
2019-02-07T17:15:46.583Z,98410.08
2019-02-07T17:18:14.889Z,98414.44
2019-02-07T17:20:43.218Z,98423.02
2019-02-07T17:23:11.531Z,98417.16
2019-02-07T17:25:40.101Z,98418.88
2019-02-07T17:28:08.864Z,98428.66
2019-02-07T17:30:37.767Z,98419.31
2019-02-07T17:33:06.146Z,98417.95
2019-02-07T17:35:34.940Z,98420.91
2019-02-07T17:38:03.622Z,98419.85
2019-02-07T17:40:32.017Z,98426.06
2019-02-07T17:43:00.333Z,98420.61
2019-02-07T17:45:30.714Z,98416.14
2019-02-07T17:47:59.200Z,98421.13
2019-02-07T17:50:36.493Z,98420.39
2019-02-07T17:53:10.257Z,98429.92
2019-02-07T17:55:38.616Z,98434.61
2019-02-07T17:58:08.387Z,98434.38
2019-02-07T18:00:54.082Z,98439.31
2019-02-07T18:03:22.767Z,98431.26
2019-02-07T18:05:51.230Z,98434.11
2019-02-07T18:08:19.702Z,98432.59
2019-02-07T18:10:48.852Z,98432.94
2019-02-07T18:13:17.220Z,98438.38
2019-02-07T18:15:45.620Z,98446.63
2019-02-07T18:18:14.002Z,98454.91
2019-02-07T18:20:42.307Z,98457.20
2019-02-07T18:23:10.711Z,98447.53
2019-02-07T18:25:39.186Z,98440.80
2019-02-07T18:28:08.054Z,98447.98
2019-02-07T18:30:36.501Z,98441.88
2019-02-07T18:33:04.905Z,98459.33
2019-02-07T18:35:33.209Z,98455.61
2019-02-07T18:38:01.607Z,98448.24
2019-02-07T18:40:31.718Z,98451.92
2019-02-07T18:43:00.595Z,98461.43
2019-02-07T18:45:29.870Z,98447.81
2019-02-07T18:47:58.260Z,98455.19
2019-02-07T18:50:31.919Z,98452.41
2019-02-07T18:53:00.241Z,98449.30
2019-02-07T18:55:28.687Z,98448.31
2019-02-07T18:57:57.159Z,98452.16
2019-02-07T19:00:28.643Z,98439.70
2019-02-07T19:02:56.966Z,98443.83
2019-02-07T19:05:25.334Z,98446.58
2019-02-07T19:07:54.414Z,98444.60
2019-02-07T19:10:24.961Z,98461.36
2019-02-07T19:12:53.738Z,98456.55
2019-02-07T19:15:27.989Z,98445.52
2019-02-07T19:17:56.744Z,98462.73
2019-02-07T19:20:25.222Z,98475.06
2019-02-07T19:22:53.614Z,98460.27
2019-02-07T19:25:21.987Z,98459.59
2019-02-07T19:27:50.358Z,98462.45
2019-02-07T19:30:22.223Z,98468.39
2019-02-07T19:32:50.613Z,98471.27
2019-02-07T19:35:19.058Z,98480.12
2019-02-07T19:37:47.456Z,98467.76
2019-02-07T19:40:18.043Z,98474.91
2019-02-07T19:42:46.435Z,98478.98
2019-02-07T19:45:17.849Z,98490.46
2019-02-07T19:47:46.627Z,98487.45
2019-02-07T19:50:17.637Z,98482.70
2019-02-07T19:52:46.774Z,98476.00
2019-02-07T19:55:17.584Z,98487.58
2019-02-07T19:57:45.962Z,98492.10
2019-02-07T20:00:23.522Z,98484.67
2019-02-07T20:02:51.913Z,98473.31
2019-02-07T20:05:20.420Z,98465.70
2019-02-07T20:07:49.161Z,98467.02
2019-02-07T20:10:25.673Z,98463.67
2019-02-07T20:12:54.892Z,98472.69
2019-02-07T20:15:28.549Z,98468.19
2019-02-07T20:17:59.743Z,98488.16
2019-02-07T20:20:27.410Z,98490.94
2019-02-07T20:22:55.933Z,98490.82
2019-02-07T20:25:24.698Z,98498.63
2019-02-07T20:27:53.008Z,98503.47
2019-02-07T20:30:29.914Z,98494.31
2019-02-07T20:32:58.764Z,98499.44
2019-02-07T20:35:27.160Z,98517.18
2019-02-07T20:37:55.600Z,98524.14
2019-02-07T20:40:28.605Z,98520.63
2019-02-07T20:42:57.328Z,98511.91
2019-02-07T20:45:26.642Z,98512.02
2019-02-07T20:47:55.420Z,98509.27
2019-02-07T20:50:30.228Z,98504.40
2019-02-07T20:52:59.025Z,98518.11
2019-02-07T20:55:27.588Z,98507.25
2019-02-07T20:57:56.534Z,98507.30
2019-02-07T21:00:33.309Z,98512.56
2019-02-07T21:03:02.185Z,98519.52
2019-02-07T21:05:31.840Z,98513.94
2019-02-07T21:08:00.681Z,98520.93
2019-02-07T21:10:32.181Z,98508.33
2019-02-07T21:13:00.946Z,98515.66
2019-02-07T21:15:29.882Z,98513.57
2019-02-07T21:17:58.253Z,98521.77
2019-02-07T21:20:28.941Z,98518.09
2019-02-07T21:22:58.461Z,98521.69
2019-02-07T21:25:30.335Z,98523.33
2019-02-07T21:27:58.637Z,98536.30
2019-02-07T21:30:31.936Z,98534.70
2019-02-07T21:33:00.596Z,98543.80
2019-02-07T21:35:29.954Z,98550.20
2019-02-07T21:37:58.338Z,98549.40
2019-02-07T21:40:29.135Z,98545.53
2019-02-07T21:42:59.694Z,98544.17
2019-02-07T21:45:28.985Z,98551.08
2019-02-07T21:47:59.126Z,98551.10
2019-02-07T21:50:29.749Z,98566.17
2019-02-07T21:52:58.219Z,98566.00
2019-02-07T21:55:28.984Z,98575.05
2019-02-07T21:57:57.733Z,98567.36
2019-02-07T22:00:32.401Z,98570.44
2019-02-07T22:03:00.865Z,98562.38
2019-02-07T22:05:29.352Z,98570.86
2019-02-07T22:07:57.724Z,98566.01
2019-02-07T22:10:26.261Z,98555.39
2019-02-07T22:12:54.903Z,98566.08
2019-02-07T22:15:25.208Z,98564.05
2019-02-07T22:17:54.004Z,98569.31
2019-02-07T22:20:27.242Z,98565.59
2019-02-07T22:22:57.786Z,98562.40
2019-02-07T22:25:26.628Z,98565.16
2019-02-07T22:27:55.045Z,98573.98
2019-02-07T22:30:29.288Z,98578.67
2019-02-07T22:32:58.311Z,98578.61
2019-02-07T22:35:27.011Z,98586.77
2019-02-07T22:37:55.575Z,98585.16
2019-02-07T22:40:25.614Z,98578.42
2019-02-07T22:42:54.313Z,98589.91
2019-02-07T22:45:25.706Z,98589.64
2019-02-07T22:47:54.170Z,98595.77
2019-02-07T22:50:27.939Z,98600.27
2019-02-07T22:52:57.353Z,98599.09
2019-02-07T22:55:25.890Z,98591.31
2019-02-07T22:57:54.260Z,98605.23
2019-02-07T23:00:44.615Z,98592.73
2019-02-07T23:03:17.944Z,98591.32
2019-02-07T23:05:46.794Z,98595.50
2019-02-07T23:08:15.385Z,98586.34
2019-02-07T23:10:44.142Z,98587.69
2019-02-07T23:13:12.830Z,98588.12
2019-02-07T23:15:41.895Z,98586.37
2019-02-07T23:18:10.289Z,98592.08
2019-02-07T23:20:38.661Z,98590.34
2019-02-07T23:23:11.452Z,98593.50
2019-02-07T23:25:40.778Z,98591.06
2019-02-07T23:28:09.633Z,98594.45
2019-02-07T23:30:38.107Z,98596.32
2019-02-07T23:33:07.113Z,98591.82
2019-02-07T23:35:35.416Z,98592.55
2019-02-07T23:38:05.424Z,98585.41
2019-02-07T23:40:33.824Z,98596.25
2019-02-07T23:43:02.403Z,98593.92
2019-02-07T23:45:30.759Z,98597.86
2019-02-07T23:47:59.436Z,98605.29
2019-02-07T23:50:27.878Z,98607.02
2019-02-07T23:52:56.275Z,98606.02
2019-02-07T23:55:24.909Z,98611.13
2019-02-07T23:57:53.199Z,98608.80
